sensor_id;sensor_type;location;lat;lon;timestamp;P1;durP1;ratioP1;P2;durP2;ratioP2
8714;SDS011;4394;51.208;8.904;2024-01-11T00:01:20;27.00;;;13.13;;
8714;SDS011;4394;51.208;8.904;2024-01-11T00:04:11;27.37;;;13.30;;
8714;SDS011;4394;51.208;8.904;2024-01-11T00:07:01;28.37;;;13.00;;
8714;SDS011;4394;51.208;8.904;2024-01-11T00:09:49;27.30;;;14.17;;
8714;SDS011;4394;51.208;8.904;2024-01-11T00:12:37;29.53;;;14.03;;
8714;SDS011;4394;51.208;8.904;2024-01-11T00:15:25;27.90;;;13.37;;
8714;SDS011;4394;51.208;8.904;2024-01-11T00:18:12;29.50;;;13.73;;
8714;SDS011;4394;51.208;8.904;2024-01-11T00:21:01;31.03;;;13.73;;
8714;SDS011;4394;51.208;8.904;2024-01-11T00:23:50;26.53;;;14.30;;
8714;SDS011;4394;51.208;8.904;2024-01-11T00:26:38;28.27;;;13.20;;
8714;SDS011;4394;51.208;8.904;2024-01-11T00:29:26;28.60;;;13.43;;
8714;SDS011;4394;51.208;8.904;2024-01-11T00:32:14;31.67;;;13.67;;
8714;SDS011;4394;51.208;8.904;2024-01-11T00:35:02;28.03;;;13.93;;
8714;SDS011;4394;51.208;8.904;2024-01-11T00:37:51;30.63;;;14.73;;
8714;SDS011;4394;51.208;8.904;2024-01-11T00:40:40;29.13;;;13.07;;
8714;SDS011;4394;51.208;8.904;2024-01-11T00:43:28;27.53;;;13.40;;
8714;SDS011;4394;51.208;8.904;2024-01-11T00:46:16;32.60;;;14.13;;
8714;SDS011;4394;51.208;8.904;2024-01-11T00:49:04;28.97;;;14.47;;
8714;SDS011;4394;51.208;8.904;2024-01-11T00:51:52;31.23;;;13.80;;
8714;SDS011;4394;51.208;8.904;2024-01-11T00:54:40;28.50;;;13.20;;
8714;SDS011;4394;51.208;8.904;2024-01-11T00:57:29;27.17;;;14.57;;
8714;SDS011;4394;51.208;8.904;2024-01-11T01:00:17;29.93;;;14.47;;
8714;SDS011;4394;51.208;8.904;2024-01-11T01:03:05;29.60;;;14.17;;
8714;SDS011;4394;51.208;8.904;2024-01-11T01:05:53;30.83;;;14.47;;
8714;SDS011;4394;51.208;8.904;2024-01-11T01:08:42;31.33;;;14.60;;
8714;SDS011;4394;51.208;8.904;2024-01-11T01:11:30;27.30;;;13.87;;
8714;SDS011;4394;51.208;8.904;2024-01-11T01:14:19;30.70;;;14.33;;
8714;SDS011;4394;51.208;8.904;2024-01-11T01:17:07;26.27;;;13.43;;
8714;SDS011;4394;51.208;8.904;2024-01-11T01:19:55;32.27;;;15.30;;
8714;SDS011;4394;51.208;8.904;2024-01-11T01:22:43;30.70;;;14.93;;
8714;SDS011;4394;51.208;8.904;2024-01-11T01:25:31;33.27;;;15.17;;
8714;SDS011;4394;51.208;8.904;2024-01-11T01:28:19;28.73;;;14.20;;
8714;SDS011;4394;51.208;8.904;2024-01-11T01:31:09;27.83;;;14.10;;
8714;SDS011;4394;51.208;8.904;2024-01-11T01:33:57;31.33;;;13.67;;
8714;SDS011;4394;51.208;8.904;2024-01-11T01:36:45;29.80;;;13.83;;
8714;SDS011;4394;51.208;8.904;2024-01-11T01:39:36;31.13;;;15.17;;
8714;SDS011;4394;51.208;8.904;2024-01-11T01:42:25;27.50;;;13.63;;
8714;SDS011;4394;51.208;8.904;2024-01-11T01:45:14;32.27;;;14.77;;
8714;SDS011;4394;51.208;8.904;2024-01-11T01:48:04;29.13;;;13.97;;
8714;SDS011;4394;51.208;8.904;2024-01-11T01:50:56;29.17;;;14.20;;
8714;SDS011;4394;51.208;8.904;2024-01-11T01:53:44;27.90;;;13.80;;
8714;SDS011;4394;51.208;8.904;2024-01-11T01:56:32;32.47;;;14.67;;
8714;SDS011;4394;51.208;8.904;2024-01-11T01:59:20;28.00;;;14.40;;
8714;SDS011;4394;51.208;8.904;2024-01-11T02:02:09;29.50;;;14.07;;
8714;SDS011;4394;51.208;8.904;2024-01-11T02:04:59;34.60;;;15.63;;
8714;SDS011;4394;51.208;8.904;2024-01-11T02:07:48;32.30;;;14.53;;
8714;SDS011;4394;51.208;8.904;2024-01-11T02:10:36;30.90;;;14.20;;
8714;SDS011;4394;51.208;8.904;2024-01-11T02:13:25;30.53;;;14.90;;
8714;SDS011;4394;51.208;8.904;2024-01-11T02:16:13;32.40;;;15.13;;
8714;SDS011;4394;51.208;8.904;2024-01-11T02:19:02;31.60;;;14.60;;
8714;SDS011;4394;51.208;8.904;2024-01-11T02:21:53;29.03;;;14.10;;
8714;SDS011;4394;51.208;8.904;2024-01-11T02:24:44;32.37;;;14.40;;
8714;SDS011;4394;51.208;8.904;2024-01-11T02:27:44;27.07;;;14.37;;
8714;SDS011;4394;51.208;8.904;2024-01-11T02:30:32;29.77;;;14.77;;
8714;SDS011;4394;51.208;8.904;2024-01-11T02:33:21;30.20;;;14.63;;
8714;SDS011;4394;51.208;8.904;2024-01-11T02:36:09;32.83;;;15.03;;
8714;SDS011;4394;51.208;8.904;2024-01-11T02:38:58;30.80;;;14.60;;
8714;SDS011;4394;51.208;8.904;2024-01-11T02:41:47;28.30;;;13.53;;
8714;SDS011;4394;51.208;8.904;2024-01-11T02:44:36;27.83;;;14.47;;
8714;SDS011;4394;51.208;8.904;2024-01-11T02:47:24;32.47;;;13.97;;
8714;SDS011;4394;51.208;8.904;2024-01-11T02:50:12;32.40;;;15.07;;
8714;SDS011;4394;51.208;8.904;2024-01-11T02:53:00;31.33;;;13.53;;
8714;SDS011;4394;51.208;8.904;2024-01-11T02:55:49;31.83;;;15.23;;
8714;SDS011;4394;51.208;8.904;2024-01-11T02:58:38;28.17;;;13.50;;
8714;SDS011;4394;51.208;8.904;2024-01-11T03:01:26;30.00;;;15.00;;
8714;SDS011;4394;51.208;8.904;2024-01-11T03:04:14;30.30;;;15.33;;
8714;SDS011;4394;51.208;8.904;2024-01-11T03:07:03;27.03;;;14.37;;
8714;SDS011;4394;51.208;8.904;2024-01-11T03:09:51;29.07;;;14.13;;
8714;SDS011;4394;51.208;8.904;2024-01-11T03:12:39;32.93;;;15.60;;
8714;SDS011;4394;51.208;8.904;2024-01-11T03:15:28;33.37;;;14.77;;
8714;SDS011;4394;51.208;8.904;2024-01-11T03:18:17;29.43;;;14.17;;
8714;SDS011;4394;51.208;8.904;2024-01-11T03:21:05;31.23;;;14.30;;
8714;SDS011;4394;51.208;8.904;2024-01-11T03:23:53;33.43;;;15.77;;
8714;SDS011;4394;51.208;8.904;2024-01-11T03:26:41;29.73;;;14.60;;
8714;SDS011;4394;51.208;8.904;2024-01-11T03:29:29;34.30;;;15.13;;
8714;SDS011;4394;51.208;8.904;2024-01-11T03:32:18;30.90;;;15.10;;
8714;SDS011;4394;51.208;8.904;2024-01-11T03:35:07;32.57;;;15.07;;
8714;SDS011;4394;51.208;8.904;2024-01-11T03:37:55;31.20;;;15.40;;
8714;SDS011;4394;51.208;8.904;2024-01-11T03:40:43;32.70;;;15.27;;
8714;SDS011;4394;51.208;8.904;2024-01-11T03:43:31;33.23;;;14.87;;
8714;SDS011;4394;51.208;8.904;2024-01-11T03:46:19;34.40;;;15.93;;
8714;SDS011;4394;51.208;8.904;2024-01-11T03:49:09;31.67;;;14.60;;
8714;SDS011;4394;51.208;8.904;2024-01-11T03:51:57;29.63;;;14.33;;
8714;SDS011;4394;51.208;8.904;2024-01-11T03:54:45;34.73;;;14.90;;
8714;SDS011;4394;51.208;8.904;2024-01-11T03:57:33;32.07;;;14.60;;
8714;SDS011;4394;51.208;8.904;2024-01-11T04:00:21;37.50;;;16.13;;
8714;SDS011;4394;51.208;8.904;2024-01-11T04:03:09;38.03;;;17.07;;
8714;SDS011;4394;51.208;8.904;2024-01-11T04:05:59;35.33;;;16.90;;
8714;SDS011;4394;51.208;8.904;2024-01-11T04:08:47;33.87;;;16.23;;
8714;SDS011;4394;51.208;8.904;2024-01-11T04:11:35;35.10;;;16.93;;
8714;SDS011;4394;51.208;8.904;2024-01-11T04:14:23;31.20;;;15.93;;
8714;SDS011;4394;51.208;8.904;2024-01-11T04:17:11;33.83;;;16.50;;
8714;SDS011;4394;51.208;8.904;2024-01-11T04:19:59;34.37;;;16.87;;
8714;SDS011;4394;51.208;8.904;2024-01-11T04:22:49;32.57;;;16.13;;
8714;SDS011;4394;51.208;8.904;2024-01-11T04:25:37;36.97;;;16.53;;
8714;SDS011;4394;51.208;8.904;2024-01-11T04:28:25;38.27;;;17.30;;
8714;SDS011;4394;51.208;8.904;2024-01-11T04:31:13;32.77;;;16.30;;
8714;SDS011;4394;51.208;8.904;2024-01-11T04:34:01;33.30;;;15.90;;
8714;SDS011;4394;51.208;8.904;2024-01-11T04:36:49;33.37;;;16.00;;
8714;SDS011;4394;51.208;8.904;2024-01-11T04:39:38;37.33;;;16.67;;
8714;SDS011;4394;51.208;8.904;2024-01-11T04:42:26;33.13;;;15.43;;
8714;SDS011;4394;51.208;8.904;2024-01-11T04:45:14;42.43;;;16.87;;
8714;SDS011;4394;51.208;8.904;2024-01-11T04:48:02;37.33;;;16.70;;
8714;SDS011;4394;51.208;8.904;2024-01-11T04:50:51;35.13;;;16.47;;
8714;SDS011;4394;51.208;8.904;2024-01-11T04:53:39;34.80;;;16.73;;
8714;SDS011;4394;51.208;8.904;2024-01-11T04:56:29;35.30;;;16.90;;
8714;SDS011;4394;51.208;8.904;2024-01-11T04:59:17;36.90;;;17.07;;
8714;SDS011;4394;51.208;8.904;2024-01-11T05:02:05;34.73;;;17.07;;
8714;SDS011;4394;51.208;8.904;2024-01-11T05:04:53;35.00;;;16.97;;
8714;SDS011;4394;51.208;8.904;2024-01-11T05:07:41;35.90;;;16.77;;
8714;SDS011;4394;51.208;8.904;2024-01-11T05:10:28;37.80;;;16.53;;
8714;SDS011;4394;51.208;8.904;2024-01-11T05:13:18;39.90;;;17.13;;
8714;SDS011;4394;51.208;8.904;2024-01-11T05:16:06;36.53;;;16.87;;
8714;SDS011;4394;51.208;8.904;2024-01-11T05:18:54;37.40;;;17.83;;
8714;SDS011;4394;51.208;8.904;2024-01-11T05:21:43;35.47;;;17.13;;
8714;SDS011;4394;51.208;8.904;2024-01-11T05:24:31;40.10;;;18.30;;
8714;SDS011;4394;51.208;8.904;2024-01-11T05:27:19;37.30;;;16.37;;
8714;SDS011;4394;51.208;8.904;2024-01-11T05:30:09;33.00;;;16.50;;
8714;SDS011;4394;51.208;8.904;2024-01-11T05:32:58;30.80;;;16.00;;
8714;SDS011;4394;51.208;8.904;2024-01-11T05:35:46;35.50;;;16.77;;
8714;SDS011;4394;51.208;8.904;2024-01-11T05:38:34;32.43;;;16.50;;
8714;SDS011;4394;51.208;8.904;2024-01-11T05:41:22;33.93;;;17.07;;
8714;SDS011;4394;51.208;8.904;2024-01-11T05:44:10;36.40;;;17.00;;
8714;SDS011;4394;51.208;8.904;2024-01-11T05:47:00;36.70;;;17.57;;
8714;SDS011;4394;51.208;8.904;2024-01-11T05:49:50;35.57;;;16.07;;
8714;SDS011;4394;51.208;8.904;2024-01-11T05:52:38;32.77;;;17.07;;
8714;SDS011;4394;51.208;8.904;2024-01-11T05:55:26;42.20;;;17.03;;
8714;SDS011;4394;51.208;8.904;2024-01-11T05:58:14;33.53;;;16.00;;
8714;SDS011;4394;51.208;8.904;2024-01-11T06:01:02;35.17;;;15.77;;
8714;SDS011;4394;51.208;8.904;2024-01-11T06:03:52;35.70;;;16.23;;
8714;SDS011;4394;51.208;8.904;2024-01-11T06:06:41;33.73;;;16.07;;
8714;SDS011;4394;51.208;8.904;2024-01-11T06:09:29;36.13;;;15.67;;
8714;SDS011;4394;51.208;8.904;2024-01-11T06:12:17;35.17;;;16.03;;
8714;SDS011;4394;51.208;8.904;2024-01-11T06:15:05;35.10;;;15.67;;
8714;SDS011;4394;51.208;8.904;2024-01-11T06:17:54;30.53;;;14.90;;
8714;SDS011;4394;51.208;8.904;2024-01-11T06:20:43;33.57;;;15.80;;
8714;SDS011;4394;51.208;8.904;2024-01-11T06:23:31;32.83;;;15.00;;
8714;SDS011;4394;51.208;8.904;2024-01-11T06:26:20;31.57;;;15.20;;
8714;SDS011;4394;51.208;8.904;2024-01-11T06:29:09;37.40;;;16.27;;
8714;SDS011;4394;51.208;8.904;2024-01-11T06:31:57;33.37;;;15.23;;
8714;SDS011;4394;51.208;8.904;2024-01-11T06:34:45;30.50;;;15.03;;
8714;SDS011;4394;51.208;8.904;2024-01-11T06:37:35;30.63;;;15.40;;
8714;SDS011;4394;51.208;8.904;2024-01-11T06:40:23;35.03;;;16.30;;
8714;SDS011;4394;51.208;8.904;2024-01-11T06:43:11;35.17;;;15.47;;
8714;SDS011;4394;51.208;8.904;2024-01-11T06:46:02;36.07;;;16.80;;
8714;SDS011;4394;51.208;8.904;2024-01-11T06:48:50;31.90;;;14.83;;
8714;SDS011;4394;51.208;8.904;2024-01-11T06:51:38;30.20;;;14.97;;
8714;SDS011;4394;51.208;8.904;2024-01-11T06:54:28;33.07;;;15.63;;
8714;SDS011;4394;51.208;8.904;2024-01-11T06:57:16;30.57;;;15.83;;
8714;SDS011;4394;51.208;8.904;2024-01-11T07:00:04;35.90;;;15.37;;
8714;SDS011;4394;51.208;8.904;2024-01-11T07:02:54;32.77;;;16.13;;
8714;SDS011;4394;51.208;8.904;2024-01-11T07:05:42;34.87;;;16.07;;
8714;SDS011;4394;51.208;8.904;2024-01-11T07:08:30;30.03;;;15.97;;
8714;SDS011;4394;51.208;8.904;2024-01-11T07:11:21;31.30;;;14.77;;
8714;SDS011;4394;51.208;8.904;2024-01-11T07:14:09;27.17;;;14.53;;
8714;SDS011;4394;51.208;8.904;2024-01-11T07:16:57;29.53;;;14.83;;
8714;SDS011;4394;51.208;8.904;2024-01-11T07:19:45;32.03;;;14.57;;
8714;SDS011;4394;51.208;8.904;2024-01-11T07:22:33;27.80;;;14.03;;
8714;SDS011;4394;51.208;8.904;2024-01-11T07:25:23;28.07;;;14.67;;
8714;SDS011;4394;51.208;8.904;2024-01-11T07:28:12;29.23;;;15.07;;
8714;SDS011;4394;51.208;8.904;2024-01-11T07:31:00;28.93;;;14.23;;
8714;SDS011;4394;51.208;8.904;2024-01-11T07:33:48;28.00;;;14.20;;
8714;SDS011;4394;51.208;8.904;2024-01-11T07:36:36;27.60;;;13.87;;
8714;SDS011;4394;51.208;8.904;2024-01-11T07:39:24;29.87;;;14.67;;
8714;SDS011;4394;51.208;8.904;2024-01-11T07:42:13;27.63;;;13.73;;
8714;SDS011;4394;51.208;8.904;2024-01-11T07:45:04;29.33;;;15.00;;
8714;SDS011;4394;51.208;8.904;2024-01-11T07:47:52;33.10;;;16.03;;
8714;SDS011;4394;51.208;8.904;2024-01-11T07:50:40;31.77;;;14.30;;
8714;SDS011;4394;51.208;8.904;2024-01-11T07:53:28;26.80;;;14.10;;
8714;SDS011;4394;51.208;8.904;2024-01-11T07:56:17;30.43;;;15.00;;
8714;SDS011;4394;51.208;8.904;2024-01-11T07:59:05;35.77;;;16.33;;
8714;SDS011;4394;51.208;8.904;2024-01-11T08:01:55;30.53;;;14.60;;
8714;SDS011;4394;51.208;8.904;2024-01-11T08:04:43;29.77;;;16.53;;
8714;SDS011;4394;51.208;8.904;2024-01-11T08:07:32;30.87;;;15.17;;
8714;SDS011;4394;51.208;8.904;2024-01-11T08:10:20;30.67;;;13.97;;
8714;SDS011;4394;51.208;8.904;2024-01-11T08:13:08;28.67;;;14.83;;
8714;SDS011;4394;51.208;8.904;2024-01-11T08:15:57;29.47;;;14.77;;
8714;SDS011;4394;51.208;8.904;2024-01-11T08:18:46;34.70;;;16.17;;
8714;SDS011;4394;51.208;8.904;2024-01-11T08:21:35;30.23;;;15.47;;
8714;SDS011;4394;51.208;8.904;2024-01-11T08:24:23;29.90;;;14.87;;
8714;SDS011;4394;51.208;8.904;2024-01-11T08:27:14;29.87;;;14.63;;
8714;SDS011;4394;51.208;8.904;2024-01-11T08:30:04;28.10;;;15.47;;
8714;SDS011;4394;51.208;8.904;2024-01-11T08:32:52;31.17;;;15.57;;
8714;SDS011;4394;51.208;8.904;2024-01-11T08:35:42;33.67;;;16.40;;
8714;SDS011;4394;51.208;8.904;2024-01-11T08:38:30;35.07;;;16.33;;
8714;SDS011;4394;51.208;8.904;2024-01-11T08:41:18;30.53;;;16.47;;
8714;SDS011;4394;51.208;8.904;2024-01-11T08:44:06;43.80;;;21.47;;
8714;SDS011;4394;51.208;8.904;2024-01-11T08:46:55;94.57;;;35.97;;
8714;SDS011;4394;51.208;8.904;2024-01-11T08:49:45;101.67;;;39.63;;
8714;SDS011;4394;51.208;8.904;2024-01-11T08:52:34;73.73;;;34.93;;
8714;SDS011;4394;51.208;8.904;2024-01-11T08:55:22;56.73;;;26.43;;
8714;SDS011;4394;51.208;8.904;2024-01-11T08:58:10;45.47;;;23.40;;
8714;SDS011;4394;51.208;8.904;2024-01-11T09:00:58;42.67;;;20.03;;
8714;SDS011;4394;51.208;8.904;2024-01-11T09:03:46;41.00;;;20.97;;
8714;SDS011;4394;51.208;8.904;2024-01-11T09:06:34;38.47;;;20.10;;
8714;SDS011;4394;51.208;8.904;2024-01-11T09:09:24;37.07;;;18.40;;
8714;SDS011;4394;51.208;8.904;2024-01-11T09:12:12;29.00;;;15.50;;
8714;SDS011;4394;51.208;8.904;2024-01-11T09:15:00;26.80;;;14.43;;
8714;SDS011;4394;51.208;8.904;2024-01-11T09:17:48;35.63;;;17.97;;
8714;SDS011;4394;51.208;8.904;2024-01-11T09:20:36;37.83;;;16.70;;
8714;SDS011;4394;51.208;8.904;2024-01-11T09:23:24;33.30;;;16.30;;
8714;SDS011;4394;51.208;8.904;2024-01-11T09:26:14;34.03;;;17.50;;
8714;SDS011;4394;51.208;8.904;2024-01-11T09:29:02;34.90;;;17.17;;
8714;SDS011;4394;51.208;8.904;2024-01-11T09:31:50;35.60;;;16.57;;
8714;SDS011;4394;51.208;8.904;2024-01-11T09:34:38;30.43;;;16.70;;
8714;SDS011;4394;51.208;8.904;2024-01-11T09:37:26;29.80;;;16.37;;
8714;SDS011;4394;51.208;8.904;2024-01-11T09:40:14;28.10;;;15.20;;
8714;SDS011;4394;51.208;8.904;2024-01-11T09:43:04;32.20;;;14.10;;
8714;SDS011;4394;51.208;8.904;2024-01-11T09:45:54;29.97;;;14.13;;
8714;SDS011;4394;51.208;8.904;2024-01-11T09:48:43;25.30;;;13.37;;
8714;SDS011;4394;51.208;8.904;2024-01-11T09:51:34;24.53;;;14.67;;
8714;SDS011;4394;51.208;8.904;2024-01-11T09:54:29;28.77;;;16.03;;
8714;SDS011;4394;51.208;8.904;2024-01-11T09:57:20;30.50;;;15.07;;
8714;SDS011;4394;51.208;8.904;2024-01-11T10:00:16;24.87;;;14.03;;
8714;SDS011;4394;51.208;8.904;2024-01-11T10:03:05;24.20;;;12.77;;
8714;SDS011;4394;51.208;8.904;2024-01-11T10:05:54;22.57;;;12.87;;
8714;SDS011;4394;51.208;8.904;2024-01-11T10:08:45;28.37;;;14.93;;
8714;SDS011;4394;51.208;8.904;2024-01-11T10:11:33;26.60;;;14.73;;
8714;SDS011;4394;51.208;8.904;2024-01-11T10:14:21;26.80;;;14.70;;
8714;SDS011;4394;51.208;8.904;2024-01-11T10:17:11;27.43;;;14.60;;
8714;SDS011;4394;51.208;8.904;2024-01-11T10:20:07;32.90;;;15.87;;
8714;SDS011;4394;51.208;8.904;2024-01-11T10:22:57;30.07;;;14.60;;
8714;SDS011;4394;51.208;8.904;2024-01-11T10:25:45;25.33;;;14.07;;
8714;SDS011;4394;51.208;8.904;2024-01-11T10:28:33;20.70;;;11.30;;
8714;SDS011;4394;51.208;8.904;2024-01-11T10:31:24;20.17;;;10.30;;
8714;SDS011;4394;51.208;8.904;2024-01-11T10:34:16;20.53;;;10.90;;
8714;SDS011;4394;51.208;8.904;2024-01-11T10:37:04;19.80;;;10.20;;
8714;SDS011;4394;51.208;8.904;2024-01-11T10:39:52;17.53;;;10.00;;
8714;SDS011;4394;51.208;8.904;2024-01-11T10:42:42;16.57;;;9.67;;
8714;SDS011;4394;51.208;8.904;2024-01-11T10:45:31;14.20;;;8.47;;
8714;SDS011;4394;51.208;8.904;2024-01-11T10:48:25;17.10;;;9.53;;
8714;SDS011;4394;51.208;8.904;2024-01-11T10:51:14;13.47;;;8.10;;
8714;SDS011;4394;51.208;8.904;2024-01-11T10:54:06;13.17;;;7.57;;
8714;SDS011;4394;51.208;8.904;2024-01-11T10:56:54;11.90;;;7.47;;
8714;SDS011;4394;51.208;8.904;2024-01-11T10:59:43;14.47;;;7.93;;
8714;SDS011;4394;51.208;8.904;2024-01-11T11:02:32;13.97;;;7.80;;
8714;SDS011;4394;51.208;8.904;2024-01-11T11:05:22;14.93;;;8.17;;
8714;SDS011;4394;51.208;8.904;2024-01-11T11:08:13;17.33;;;8.60;;
8714;SDS011;4394;51.208;8.904;2024-01-11T11:11:03;20.27;;;10.67;;
8714;SDS011;4394;51.208;8.904;2024-01-11T11:13:53;19.17;;;10.60;;
8714;SDS011;4394;51.208;8.904;2024-01-11T11:16:41;18.40;;;10.40;;
8714;SDS011;4394;51.208;8.904;2024-01-11T11:19:29;14.00;;;8.10;;
8714;SDS011;4394;51.208;8.904;2024-01-11T11:22:17;16.40;;;7.37;;
8714;SDS011;4394;51.208;8.904;2024-01-11T11:25:09;9.63;;;6.13;;
8714;SDS011;4394;51.208;8.904;2024-01-11T11:27:58;12.57;;;7.97;;
8714;SDS011;4394;51.208;8.904;2024-01-11T11:30:52;13.47;;;6.77;;
8714;SDS011;4394;51.208;8.904;2024-01-11T11:33:42;12.00;;;6.37;;
8714;SDS011;4394;51.208;8.904;2024-01-11T11:36:30;12.53;;;7.43;;
8714;SDS011;4394;51.208;8.904;2024-01-11T11:39:18;12.90;;;6.60;;
8714;SDS011;4394;51.208;8.904;2024-01-11T11:42:07;9.10;;;6.00;;
8714;SDS011;4394;51.208;8.904;2024-01-11T11:44:57;7.30;;;5.00;;
8714;SDS011;4394;51.208;8.904;2024-01-11T11:47:45;8.53;;;4.53;;
8714;SDS011;4394;51.208;8.904;2024-01-11T11:50:33;7.27;;;4.03;;
8714;SDS011;4394;51.208;8.904;2024-01-11T11:53:22;5.90;;;4.27;;
8714;SDS011;4394;51.208;8.904;2024-01-11T11:56:10;6.97;;;3.90;;
8714;SDS011;4394;51.208;8.904;2024-01-11T11:59:00;5.30;;;3.70;;
8714;SDS011;4394;51.208;8.904;2024-01-11T12:01:50;5.10;;;3.30;;
8714;SDS011;4394;51.208;8.904;2024-01-11T12:04:39;8.17;;;3.97;;
8714;SDS011;4394;51.208;8.904;2024-01-11T12:07:27;5.37;;;3.37;;
8714;SDS011;4394;51.208;8.904;2024-01-11T12:10:15;6.10;;;3.27;;
8714;SDS011;4394;51.208;8.904;2024-01-11T12:13:03;6.83;;;3.40;;
8714;SDS011;4394;51.208;8.904;2024-01-11T12:15:54;3.70;;;2.83;;
8714;SDS011;4394;51.208;8.904;2024-01-11T12:18:42;6.20;;;3.70;;
8714;SDS011;4394;51.208;8.904;2024-01-11T12:21:30;5.20;;;3.00;;
8714;SDS011;4394;51.208;8.904;2024-01-11T12:24:25;8.47;;;4.03;;
8714;SDS011;4394;51.208;8.904;2024-01-11T12:27:14;9.43;;;5.53;;
8714;SDS011;4394;51.208;8.904;2024-01-11T12:30:03;11.80;;;6.30;;
8714;SDS011;4394;51.208;8.904;2024-01-11T12:32:52;12.30;;;6.93;;
8714;SDS011;4394;51.208;8.904;2024-01-11T12:35:41;9.87;;;6.00;;
8714;SDS011;4394;51.208;8.904;2024-01-11T12:38:29;9.87;;;6.03;;
8714;SDS011;4394;51.208;8.904;2024-01-11T12:41:17;11.07;;;4.73;;
8714;SDS011;4394;51.208;8.904;2024-01-11T12:44:05;7.10;;;4.27;;
8714;SDS011;4394;51.208;8.904;2024-01-11T12:46:53;7.63;;;4.37;;
8714;SDS011;4394;51.208;8.904;2024-01-11T12:49:44;9.60;;;5.10;;
8714;SDS011;4394;51.208;8.904;2024-01-11T12:52:32;7.67;;;4.37;;
8714;SDS011;4394;51.208;8.904;2024-01-11T12:55:20;9.60;;;4.60;;
8714;SDS011;4394;51.208;8.904;2024-01-11T12:58:08;6.50;;;4.30;;
8714;SDS011;4394;51.208;8.904;2024-01-11T13:00:56;7.77;;;4.80;;
8714;SDS011;4394;51.208;8.904;2024-01-11T13:03:47;10.17;;;4.53;;
8714;SDS011;4394;51.208;8.904;2024-01-11T13:06:37;7.00;;;4.53;;
8714;SDS011;4394;51.208;8.904;2024-01-11T13:09:25;4.80;;;3.57;;
8714;SDS011;4394;51.208;8.904;2024-01-11T13:12:14;6.63;;;3.80;;
8714;SDS011;4394;51.208;8.904;2024-01-11T13:15:03;5.70;;;3.33;;
8714;SDS011;4394;51.208;8.904;2024-01-11T13:17:52;5.37;;;3.47;;
8714;SDS011;4394;51.208;8.904;2024-01-11T13:20:40;6.43;;;3.70;;
8714;SDS011;4394;51.208;8.904;2024-01-11T13:23:30;7.37;;;4.03;;
8714;SDS011;4394;51.208;8.904;2024-01-11T13:26:19;7.20;;;4.10;;
8714;SDS011;4394;51.208;8.904;2024-01-11T13:29:09;8.13;;;4.03;;
8714;SDS011;4394;51.208;8.904;2024-01-11T13:31:58;6.43;;;4.07;;
8714;SDS011;4394;51.208;8.904;2024-01-11T13:34:49;9.63;;;4.20;;
8714;SDS011;4394;51.208;8.904;2024-01-11T13:37:39;9.07;;;5.10;;
8714;SDS011;4394;51.208;8.904;2024-01-11T13:40:29;8.23;;;4.57;;
8714;SDS011;4394;51.208;8.904;2024-01-11T13:43:17;7.43;;;4.83;;
8714;SDS011;4394;51.208;8.904;2024-01-11T13:46:05;8.63;;;4.53;;
8714;SDS011;4394;51.208;8.904;2024-01-11T13:48:53;10.50;;;4.77;;
8714;SDS011;4394;51.208;8.904;2024-01-11T13:51:41;9.10;;;4.50;;
8714;SDS011;4394;51.208;8.904;2024-01-11T13:54:42;8.07;;;4.83;;
8714;SDS011;4394;51.208;8.904;2024-01-11T13:57:31;7.70;;;4.57;;
8714;SDS011;4394;51.208;8.904;2024-01-11T14:00:20;8.80;;;5.10;;
8714;SDS011;4394;51.208;8.904;2024-01-11T14:03:08;6.77;;;4.47;;
8714;SDS011;4394;51.208;8.904;2024-01-11T14:05:56;9.50;;;4.57;;
8714;SDS011;4394;51.208;8.904;2024-01-11T14:08:46;7.13;;;4.30;;
8714;SDS011;4394;51.208;8.904;2024-01-11T14:11:34;4.93;;;3.40;;
8714;SDS011;4394;51.208;8.904;2024-01-11T14:14:23;8.37;;;3.97;;
8714;SDS011;4394;51.208;8.904;2024-01-11T14:17:11;6.07;;;3.50;;
8714;SDS011;4394;51.208;8.904;2024-01-11T14:19:59;6.47;;;3.73;;
8714;SDS011;4394;51.208;8.904;2024-01-11T14:22:49;8.50;;;4.17;;
8714;SDS011;4394;51.208;8.904;2024-01-11T14:25:37;6.03;;;3.90;;
8714;SDS011;4394;51.208;8.904;2024-01-11T14:28:25;7.13;;;4.07;;
8714;SDS011;4394;51.208;8.904;2024-01-11T14:31:15;7.93;;;4.50;;
8714;SDS011;4394;51.208;8.904;2024-01-11T14:34:02;9.37;;;4.80;;
8714;SDS011;4394;51.208;8.904;2024-01-11T14:36:51;8.17;;;3.90;;
8714;SDS011;4394;51.208;8.904;2024-01-11T14:39:40;6.23;;;4.07;;
8714;SDS011;4394;51.208;8.904;2024-01-11T14:42:28;7.57;;;4.53;;
8714;SDS011;4394;51.208;8.904;2024-01-11T14:45:16;7.50;;;4.57;;
8714;SDS011;4394;51.208;8.904;2024-01-11T14:48:06;9.20;;;4.50;;
8714;SDS011;4394;51.208;8.904;2024-01-11T14:50:54;7.73;;;5.30;;
8714;SDS011;4394;51.208;8.904;2024-01-11T14:53:42;7.77;;;4.57;;
8714;SDS011;4394;51.208;8.904;2024-01-11T14:56:30;8.60;;;4.53;;
8714;SDS011;4394;51.208;8.904;2024-01-11T14:59:18;9.17;;;4.87;;
8714;SDS011;4394;51.208;8.904;2024-01-11T15:02:06;7.47;;;4.80;;
8714;SDS011;4394;51.208;8.904;2024-01-11T15:04:57;8.30;;;5.07;;
8714;SDS011;4394;51.208;8.904;2024-01-11T15:07:46;10.10;;;5.80;;
8714;SDS011;4394;51.208;8.904;2024-01-11T15:10:34;10.40;;;5.43;;
8714;SDS011;4394;51.208;8.904;2024-01-11T15:13:23;10.97;;;6.10;;
8714;SDS011;4394;51.208;8.904;2024-01-11T15:16:11;6.93;;;4.57;;
8714;SDS011;4394;51.208;8.904;2024-01-11T15:18:59;12.17;;;6.20;;
8714;SDS011;4394;51.208;8.904;2024-01-11T15:21:48;9.77;;;5.63;;
8714;SDS011;4394;51.208;8.904;2024-01-11T15:24:40;12.67;;;6.57;;
8714;SDS011;4394;51.208;8.904;2024-01-11T15:27:28;14.43;;;6.83;;
8714;SDS011;4394;51.208;8.904;2024-01-11T15:30:17;14.27;;;6.73;;
8714;SDS011;4394;51.208;8.904;2024-01-11T15:33:06;13.40;;;7.17;;
8714;SDS011;4394;51.208;8.904;2024-01-11T15:35:54;12.87;;;7.30;;
8714;SDS011;4394;51.208;8.904;2024-01-11T15:38:43;12.40;;;7.93;;
8714;SDS011;4394;51.208;8.904;2024-01-11T15:41:31;14.30;;;8.50;;
8714;SDS011;4394;51.208;8.904;2024-01-11T15:44:19;15.20;;;9.37;;
8714;SDS011;4394;51.208;8.904;2024-01-11T15:47:08;18.37;;;9.50;;
8714;SDS011;4394;51.208;8.904;2024-01-11T15:49:57;21.53;;;10.53;;
8714;SDS011;4394;51.208;8.904;2024-01-11T15:52:45;21.03;;;10.80;;
8714;SDS011;4394;51.208;8.904;2024-01-11T15:55:34;21.20;;;11.17;;
8714;SDS011;4394;51.208;8.904;2024-01-11T15:58:22;21.07;;;11.37;;
8714;SDS011;4394;51.208;8.904;2024-01-11T16:01:10;22.97;;;12.87;;
8714;SDS011;4394;51.208;8.904;2024-01-11T16:03:58;21.27;;;11.80;;
8714;SDS011;4394;51.208;8.904;2024-01-11T16:06:46;26.20;;;13.43;;
8714;SDS011;4394;51.208;8.904;2024-01-11T16:09:34;25.17;;;12.97;;
8714;SDS011;4394;51.208;8.904;2024-01-11T16:12:23;27.33;;;12.67;;
8714;SDS011;4394;51.208;8.904;2024-01-11T16:15:11;20.43;;;11.23;;
8714;SDS011;4394;51.208;8.904;2024-01-11T16:17:59;17.83;;;9.40;;
8714;SDS011;4394;51.208;8.904;2024-01-11T16:20:47;18.10;;;9.57;;
8714;SDS011;4394;51.208;8.904;2024-01-11T16:23:37;19.17;;;9.60;;
8714;SDS011;4394;51.208;8.904;2024-01-11T16:26:25;16.80;;;8.67;;
8714;SDS011;4394;51.208;8.904;2024-01-11T16:29:15;15.80;;;8.23;;
8714;SDS011;4394;51.208;8.904;2024-01-11T16:32:03;17.33;;;8.13;;
8714;SDS011;4394;51.208;8.904;2024-01-11T16:34:52;17.77;;;8.03;;
8714;SDS011;4394;51.208;8.904;2024-01-11T16:37:40;16.50;;;8.43;;
8714;SDS011;4394;51.208;8.904;2024-01-11T16:40:28;17.37;;;8.90;;
8714;SDS011;4394;51.208;8.904;2024-01-11T16:43:16;14.53;;;7.50;;
8714;SDS011;4394;51.208;8.904;2024-01-11T16:46:05;15.07;;;7.37;;
8714;SDS011;4394;51.208;8.904;2024-01-11T16:48:53;18.03;;;7.83;;
8714;SDS011;4394;51.208;8.904;2024-01-11T16:51:42;15.00;;;8.17;;
8714;SDS011;4394;51.208;8.904;2024-01-11T16:54:34;16.90;;;7.70;;
8714;SDS011;4394;51.208;8.904;2024-01-11T16:57:22;16.40;;;8.10;;
8714;SDS011;4394;51.208;8.904;2024-01-11T17:00:11;16.20;;;7.47;;
8714;SDS011;4394;51.208;8.904;2024-01-11T17:03:00;15.03;;;8.10;;
8714;SDS011;4394;51.208;8.904;2024-01-11T17:05:49;15.80;;;7.17;;